createdAt,value
2019-03-04T00:02:27.707Z,8.15
2019-03-04T00:04:53.980Z,7.70
2019-03-04T00:07:20.332Z,7.55
2019-03-04T00:09:46.607Z,8.23
2019-03-04T00:12:12.864Z,8.23
2019-03-04T00:14:39.120Z,7.62
2019-03-04T00:17:05.500Z,8.13
2019-03-04T00:19:31.753Z,8.18
2019-03-04T00:21:58.199Z,7.20
2019-03-04T00:24:24.479Z,7.47
2019-03-04T00:26:50.731Z,7.78
2019-03-04T00:29:16.971Z,7.58
2019-03-04T00:31:43.256Z,7.08
2019-03-04T00:34:09.500Z,7.15
2019-03-04T00:36:35.743Z,6.90
2019-03-04T00:39:04.726Z,7.78
2019-03-04T00:41:30.975Z,8.10
2019-03-04T00:43:57.219Z,7.47
2019-03-04T00:46:23.524Z,7.05
2019-03-04T00:48:49.768Z,7.35
2019-03-04T00:51:16.044Z,7.15
2019-03-04T00:53:42.323Z,7.80
2019-03-04T00:56:08.587Z,8.25
2019-03-04T00:58:34.827Z,7.92
2019-03-04T01:01:01.100Z,7.53
2019-03-04T01:03:27.379Z,7.67
2019-03-04T01:05:53.637Z,8.18
2019-03-04T01:08:19.879Z,7.58
2019-03-04T01:10:46.156Z,7.83
2019-03-04T01:13:12.416Z,7.70
2019-03-04T01:15:38.685Z,7.20
2019-03-04T01:18:05.045Z,7.40
2019-03-04T01:20:31.306Z,7.33
2019-03-04T01:22:57.568Z,7.30
2019-03-04T01:25:23.841Z,7.90
2019-03-04T01:27:50.088Z,7.15
2019-03-04T01:30:21.226Z,7.87
2019-03-04T01:32:47.796Z,7.30
2019-03-04T01:35:14.055Z,6.97
2019-03-04T01:37:40.333Z,7.47
2019-03-04T01:40:09.984Z,7.05
2019-03-04T01:42:36.261Z,7.75
2019-03-04T01:45:05.012Z,7.30
2019-03-04T01:47:31.284Z,7.60
2019-03-04T01:49:57.565Z,7.05
2019-03-04T01:52:23.929Z,7.42
2019-03-04T01:54:50.203Z,6.95
2019-03-04T01:57:16.456Z,7.40
2019-03-04T01:59:42.736Z,6.45
2019-03-04T02:02:08.992Z,6.80
2019-03-04T02:04:35.265Z,7.25
2019-03-04T02:07:01.548Z,6.30
2019-03-04T02:09:27.806Z,6.22
2019-03-04T02:11:54.066Z,6.75
2019-03-04T02:14:20.429Z,6.05
2019-03-04T02:16:46.735Z,6.47
2019-03-04T02:19:12.931Z,5.97
2019-03-04T02:21:39.199Z,5.67
2019-03-04T02:24:19.996Z,6.55
2019-03-04T02:26:46.243Z,6.30
2019-03-04T02:29:12.624Z,5.97
2019-03-04T02:31:38.877Z,6.10
2019-03-04T02:34:05.174Z,6.40
2019-03-04T02:36:31.446Z,6.67
2019-03-04T02:38:57.697Z,6.00
2019-03-04T02:41:23.972Z,5.97
2019-03-04T02:43:50.228Z,6.10
2019-03-04T02:46:16.484Z,6.20
2019-03-04T02:48:42.871Z,5.65
2019-03-04T02:51:09.242Z,5.58
2019-03-04T02:53:35.504Z,5.90
2019-03-04T02:56:01.877Z,5.20
2019-03-04T02:58:28.132Z,5.53
2019-03-04T03:00:54.417Z,4.75
2019-03-04T03:03:20.694Z,4.70
2019-03-04T03:05:47.036Z,5.60
2019-03-04T03:08:13.307Z,5.45
2019-03-04T03:10:39.664Z,5.30
2019-03-04T03:13:05.916Z,4.80
2019-03-04T03:15:32.206Z,4.95
2019-03-04T03:17:58.435Z,5.10
2019-03-04T03:20:24.711Z,4.90
2019-03-04T03:22:50.985Z,5.10
2019-03-04T03:25:17.224Z,4.72
2019-03-04T03:27:43.500Z,4.65
2019-03-04T03:30:18.026Z,5.45
2019-03-04T03:32:44.307Z,4.42
2019-03-04T03:35:10.762Z,5.65
2019-03-04T03:37:37.105Z,5.05
2019-03-04T03:40:07.197Z,6.30
2019-03-04T03:42:33.544Z,4.45
2019-03-04T03:44:59.787Z,5.92
2019-03-04T03:47:26.083Z,5.47
2019-03-04T03:49:52.342Z,6.08
2019-03-04T03:52:18.648Z,6.25
2019-03-04T03:54:44.891Z,5.72
2019-03-04T03:57:11.169Z,6.10
2019-03-04T03:59:37.615Z,5.62
2019-03-04T04:02:04.068Z,6.75
2019-03-04T04:04:30.345Z,6.10
2019-03-04T04:06:56.610Z,6.12
2019-03-04T04:09:22.880Z,5.50
2019-03-04T04:11:49.133Z,5.80
2019-03-04T04:14:15.419Z,5.80
2019-03-04T04:16:41.658Z,6.40
2019-03-04T04:19:07.910Z,6.33
2019-03-04T04:21:34.186Z,6.05
2019-03-04T04:24:00.443Z,5.75
2019-03-04T04:26:26.722Z,6.47
2019-03-04T04:28:54.872Z,7.37
2019-03-04T04:31:21.443Z,6.70
2019-03-04T04:33:47.700Z,6.97
2019-03-04T04:36:14.171Z,6.83
2019-03-04T04:38:40.453Z,6.55
2019-03-04T04:41:06.733Z,7.20
2019-03-04T04:43:33.079Z,6.03
2019-03-04T04:45:59.327Z,5.17
2019-03-04T04:48:25.628Z,6.15
2019-03-04T04:50:51.873Z,5.97
2019-03-04T04:53:18.182Z,5.70
2019-03-04T04:55:44.423Z,5.87
2019-03-04T04:58:10.678Z,6.05
2019-03-04T05:00:36.967Z,6.80
2019-03-04T05:03:03.230Z,5.37
2019-03-04T05:05:29.575Z,6.12
2019-03-04T05:07:55.836Z,6.33
2019-03-04T05:10:23.203Z,5.92
2019-03-04T05:12:49.455Z,6.45
2019-03-04T05:15:16.339Z,5.90
2019-03-04T05:17:42.692Z,6.30
2019-03-04T05:20:15.690Z,6.25
2019-03-04T05:22:42.045Z,6.33
2019-03-04T05:25:08.816Z,6.12
2019-03-04T05:27:35.081Z,6.00
2019-03-04T05:30:01.528Z,5.90
2019-03-04T05:32:27.905Z,5.25
2019-03-04T05:34:54.148Z,5.92
2019-03-04T05:37:20.436Z,5.80
2019-03-04T05:39:46.691Z,6.20
2019-03-04T05:42:12.948Z,5.87
2019-03-04T05:44:39.228Z,6.37
2019-03-04T05:47:05.483Z,6.55
2019-03-04T05:49:31.765Z,6.17
2019-03-04T05:51:58.009Z,6.92
2019-03-04T05:54:24.288Z,6.20
2019-03-04T05:56:50.566Z,5.75
2019-03-04T05:59:20.059Z,6.10
2019-03-04T06:01:48.693Z,6.67
2019-03-04T06:04:14.975Z,6.60
2019-03-04T06:06:55.244Z,6.25
2019-03-04T06:09:21.520Z,6.33
2019-03-04T06:11:47.991Z,7.08
2019-03-04T06:14:14.269Z,7.15
2019-03-04T06:16:47.262Z,7.45
2019-03-04T06:19:08.675Z,6.58
2019-03-04T06:21:34.944Z,6.90
2019-03-04T06:24:01.398Z,7.17
2019-03-04T06:26:27.723Z,7.33
2019-03-04T06:28:54.077Z,7.10
2019-03-04T06:31:20.323Z,7.08
2019-03-04T06:33:46.613Z,6.25
2019-03-04T06:36:32.728Z,7.30
2019-03-04T06:38:59.104Z,6.62
2019-03-04T06:41:25.484Z,6.60
2019-03-04T06:43:51.727Z,6.40
2019-03-04T06:46:18.004Z,6.85
2019-03-04T06:48:44.360Z,6.22
2019-03-04T06:51:14.454Z,6.92
2019-03-04T06:53:53.750Z,6.30
2019-03-04T06:56:35.917Z,7.15
2019-03-04T06:59:11.979Z,7.67
2019-03-04T07:01:42.041Z,7.37
2019-03-04T07:04:18.191Z,8.80
2019-03-04T07:06:44.459Z,6.75
2019-03-04T07:09:10.944Z,6.42
2019-03-04T07:11:37.308Z,6.75
2019-03-04T07:14:03.901Z,8.40
2019-03-04T07:16:32.018Z,8.55
2019-03-04T07:18:58.600Z,6.90
2019-03-04T07:21:24.997Z,6.90
2019-03-04T07:23:51.243Z,6.53
2019-03-04T07:26:17.596Z,7.12
2019-03-04T07:28:43.977Z,9.40
2019-03-04T07:31:10.328Z,10.75
2019-03-04T07:33:36.602Z,10.00
2019-03-04T07:36:02.869Z,12.90
2019-03-04T07:38:35.955Z,10.20
2019-03-04T07:41:02.237Z,9.10
2019-03-04T07:43:28.509Z,8.05
2019-03-04T07:45:54.779Z,8.03
2019-03-04T07:48:21.040Z,7.75
2019-03-04T07:50:47.294Z,8.10
2019-03-04T07:53:13.597Z,7.22
2019-03-04T07:55:40.058Z,7.35
2019-03-04T07:58:06.340Z,7.33
2019-03-04T08:00:33.021Z,7.33
2019-03-04T08:02:59.276Z,7.05
2019-03-04T08:05:25.628Z,6.08
2019-03-04T08:07:58.492Z,5.45
2019-03-04T08:10:51.521Z,5.92
2019-03-04T08:13:27.474Z,5.50
2019-03-04T08:15:53.832Z,7.03
2019-03-04T08:18:20.185Z,7.47
2019-03-04T08:20:46.573Z,6.70
2019-03-04T08:23:12.966Z,5.55
2019-03-04T08:25:39.186Z,4.62
2019-03-04T08:28:06.770Z,4.50
2019-03-04T08:30:33.128Z,4.42
2019-03-04T08:32:59.389Z,3.90
2019-03-04T08:35:25.775Z,4.42
2019-03-04T08:37:52.046Z,4.10
2019-03-04T08:40:18.397Z,4.37
2019-03-04T08:42:44.782Z,3.90
2019-03-04T08:45:13.643Z,4.00
2019-03-04T08:47:40.104Z,3.90
2019-03-04T08:50:11.923Z,4.20
2019-03-04T08:52:38.413Z,4.00
2019-03-04T08:55:07.481Z,4.08
2019-03-04T08:57:33.760Z,4.58
2019-03-04T09:00:00.020Z,3.63
2019-03-04T09:02:26.300Z,3.80
2019-03-04T09:04:52.548Z,3.90
2019-03-04T09:07:18.814Z,4.05
2019-03-04T09:09:45.096Z,4.50
2019-03-04T09:12:11.372Z,5.53
2019-03-04T09:14:37.639Z,4.00
2019-03-04T09:17:03.975Z,4.40
2019-03-04T09:19:34.530Z,3.93
2019-03-04T09:22:00.792Z,4.67
2019-03-04T09:24:27.034Z,3.23
2019-03-04T09:26:53.400Z,2.63
2019-03-04T09:29:19.667Z,3.30
2019-03-04T09:31:45.977Z,3.10
2019-03-04T09:34:12.248Z,4.00
2019-03-04T09:36:38.615Z,3.37
2019-03-04T09:39:05.376Z,4.10
2019-03-04T09:41:31.664Z,3.33
2019-03-04T09:43:57.924Z,3.33
2019-03-04T09:46:24.273Z,3.40
2019-03-04T09:48:50.638Z,3.00
2019-03-04T09:51:24.085Z,2.63
2019-03-04T09:53:45.108Z,3.53
2019-03-04T09:56:11.351Z,3.07
2019-03-04T09:58:37.708Z,2.90
2019-03-04T10:01:10.724Z,3.50
2019-03-04T10:03:40.788Z,3.23
2019-03-04T10:06:13.832Z,3.00
2019-03-04T10:09:10.672Z,3.27
2019-03-04T10:11:49.898Z,3.73
2019-03-04T10:14:26.015Z,3.70
2019-03-04T10:16:59.023Z,3.20
2019-03-04T10:19:38.472Z,3.70
2019-03-04T10:22:11.259Z,3.73
2019-03-04T10:24:53.600Z,3.30
2019-03-04T10:27:32.920Z,3.03
2019-03-04T10:30:18.026Z,3.47
2019-03-04T10:32:57.015Z,3.67
2019-03-04T10:35:27.104Z,3.50
2019-03-04T10:38:22.833Z,3.27
2019-03-04T10:40:58.936Z,3.50
2019-03-04T10:43:58.189Z,3.17
2019-03-04T10:46:37.184Z,3.20
2019-03-04T10:49:03.687Z,3.53
2019-03-04T10:51:30.049Z,3.37
2019-03-04T10:53:56.320Z,3.97
2019-03-04T10:56:22.581Z,3.47
2019-03-04T10:58:48.860Z,3.63
2019-03-04T11:01:15.108Z,3.60
2019-03-04T11:03:41.381Z,3.60
2019-03-04T11:06:07.660Z,3.63
2019-03-04T11:08:33.923Z,2.90
2019-03-04T11:11:00.406Z,3.47
2019-03-04T11:13:26.770Z,3.77
2019-03-04T11:15:53.051Z,3.73
2019-03-04T11:18:19.344Z,3.97
2019-03-04T11:20:45.605Z,3.53
2019-03-04T11:23:11.984Z,2.80
2019-03-04T11:25:38.336Z,2.80
2019-03-04T11:28:04.716Z,3.07
2019-03-04T11:30:31.983Z,2.90
2019-03-04T11:32:58.260Z,2.93
2019-03-04T11:35:24.527Z,2.40
2019-03-04T11:37:50.779Z,3.27
2019-03-04T11:40:22.778Z,2.77
2019-03-04T11:42:50.606Z,3.23
2019-03-04T11:45:18.579Z,2.30
2019-03-04T11:47:44.980Z,2.40
2019-03-04T11:50:15.598Z,2.13
2019-03-04T11:52:42.057Z,1.80
2019-03-04T11:55:11.353Z,2.00
2019-03-04T11:57:37.708Z,2.30
2019-03-04T12:00:13.218Z,2.10
2019-03-04T12:02:39.560Z,2.37
2019-03-04T12:05:09.228Z,2.00
2019-03-04T12:07:35.609Z,4.37
2019-03-04T12:10:04.762Z,2.17
2019-03-04T12:12:31.052Z,2.20
2019-03-04T12:14:57.306Z,5.47
2019-03-04T12:17:23.682Z,3.07
2019-03-04T12:19:50.065Z,2.87
2019-03-04T12:22:16.308Z,3.17
2019-03-04T12:24:42.676Z,3.00
2019-03-04T12:27:08.933Z,3.20
2019-03-04T12:29:35.316Z,3.97
2019-03-04T12:32:03.471Z,5.07
2019-03-04T12:34:29.726Z,9.33
2019-03-04T12:36:56.103Z,3.67
2019-03-04T12:39:22.360Z,2.90
2019-03-04T12:41:49.762Z,2.20
2019-03-04T12:44:16.203Z,2.00
2019-03-04T12:46:42.492Z,2.00
2019-03-04T12:49:08.903Z,2.07
2019-03-04T12:51:35.148Z,3.50
2019-03-04T12:54:01.462Z,2.53
2019-03-04T12:56:27.723Z,2.70
2019-03-04T12:58:53.971Z,1.80
2019-03-04T13:01:20.367Z,2.00
2019-03-04T13:03:46.657Z,1.47
2019-03-04T13:06:13.069Z,1.53
2019-03-04T13:08:39.447Z,2.33
2019-03-04T13:11:05.730Z,2.13
2019-03-04T13:13:32.006Z,1.10
2019-03-04T13:15:59.999Z,1.00
2019-03-04T13:18:26.491Z,1.03
2019-03-04T13:20:52.872Z,0.90
2019-03-04T13:23:19.130Z,0.80
2019-03-04T13:25:45.400Z,0.60
2019-03-04T13:28:11.792Z,0.77
2019-03-04T13:30:39.449Z,1.07
2019-03-04T13:33:05.949Z,0.70
2019-03-04T13:35:38.726Z,0.80
2019-03-04T13:38:05.252Z,0.60
2019-03-04T13:40:31.731Z,0.73
2019-03-04T13:42:58.181Z,0.83
2019-03-04T13:45:25.822Z,0.70
2019-03-04T13:47:52.183Z,0.93
2019-03-04T13:50:22.288Z,1.00
2019-03-04T13:52:48.709Z,0.87
2019-03-04T13:55:15.371Z,0.70
2019-03-04T13:57:41.860Z,0.63
2019-03-04T14:00:15.194Z,0.60
2019-03-04T14:02:41.541Z,0.70
2019-03-04T14:05:09.845Z,1.50
2019-03-04T14:07:36.199Z,0.77
2019-03-04T14:10:05.489Z,0.80
2019-03-04T14:12:31.856Z,0.70
2019-03-04T14:14:58.239Z,0.70
2019-03-04T14:17:24.522Z,0.70
2019-03-04T14:19:50.795Z,0.80
2019-03-04T14:22:17.153Z,0.70
2019-03-04T14:24:43.457Z,0.60
2019-03-04T14:27:09.907Z,0.90
2019-03-04T14:29:36.204Z,0.70
2019-03-04T14:32:02.588Z,0.68
2019-03-04T14:34:28.875Z,0.60
2019-03-04T14:36:55.135Z,0.70
2019-03-04T14:39:21.528Z,1.65
2019-03-04T14:41:47.888Z,0.60
2019-03-04T14:44:14.181Z,0.72
2019-03-04T14:46:40.469Z,1.50
2019-03-04T14:49:06.830Z,0.90
2019-03-04T14:51:33.120Z,0.95
2019-03-04T14:53:59.376Z,1.00
2019-03-04T14:56:25.644Z,0.95
2019-03-04T14:59:09.776Z,0.80
2019-03-04T15:01:20.143Z,0.70
2019-03-04T15:03:46.524Z,0.70
2019-03-04T15:06:12.766Z,0.80
2019-03-04T15:08:39.165Z,0.60
2019-03-04T15:11:05.577Z,0.90
2019-03-04T15:13:31.963Z,3.72
2019-03-04T15:16:01.362Z,4.30
2019-03-04T15:18:26.512Z,0.90
2019-03-04T15:20:52.780Z,1.85
2019-03-04T15:23:19.073Z,1.70
2019-03-04T15:25:45.432Z,1.50
2019-03-04T15:28:23.612Z,1.00
2019-03-04T15:31:01.624Z,1.82
2019-03-04T15:33:28.103Z,2.27
2019-03-04T15:35:54.603Z,1.30
2019-03-04T15:38:21.075Z,1.20
2019-03-04T15:40:47.468Z,1.27
2019-03-04T15:43:13.960Z,1.35
2019-03-04T15:45:42.265Z,1.45
2019-03-04T15:48:08.671Z,1.45
2019-03-04T15:50:35.039Z,1.87
2019-03-04T15:53:01.530Z,1.60
2019-03-04T15:55:27.980Z,1.32
2019-03-04T15:57:54.385Z,1.10
2019-03-04T16:00:21.141Z,0.90
2019-03-04T16:02:48.846Z,1.05
2019-03-04T16:05:16.397Z,1.50
2019-03-04T16:07:42.947Z,1.20
2019-03-04T16:10:17.212Z,2.30
2019-03-04T16:12:43.800Z,1.00
2019-03-04T16:15:15.949Z,1.15
2019-03-04T16:17:42.404Z,1.52
2019-03-04T16:20:16.079Z,1.10
2019-03-04T16:22:39.351Z,1.52
2019-03-04T16:25:07.752Z,1.30
2019-03-04T16:27:34.099Z,1.32
2019-03-04T16:30:00.476Z,1.87
2019-03-04T16:32:26.862Z,1.60
2019-03-04T16:34:53.099Z,1.20
2019-03-04T16:37:19.683Z,0.98
2019-03-04T16:39:45.957Z,1.72
2019-03-04T16:42:13.236Z,2.55
2019-03-04T16:44:40.146Z,2.47
2019-03-04T16:47:06.496Z,1.17
2019-03-04T16:49:32.743Z,1.10
2019-03-04T16:51:59.113Z,2.65
2019-03-04T16:54:25.502Z,1.60
2019-03-04T16:56:51.773Z,1.00
2019-03-04T16:59:18.025Z,1.35
2019-03-04T17:01:44.316Z,1.30
2019-03-04T17:04:10.569Z,2.42
2019-03-04T17:06:36.951Z,2.55
2019-03-04T17:09:07.031Z,5.25
2019-03-04T17:11:33.325Z,1.10
2019-03-04T17:13:59.743Z,1.40
2019-03-04T17:16:26.028Z,1.30
2019-03-04T17:18:52.260Z,1.65
2019-03-04T17:21:18.742Z,1.70
2019-03-04T17:23:45.108Z,1.20
2019-03-04T17:26:11.894Z,1.55
2019-03-04T17:28:38.148Z,1.30
2019-03-04T17:31:04.612Z,1.10
2019-03-04T17:33:31.001Z,1.25
2019-03-04T17:35:57.264Z,1.50
2019-03-04T17:38:23.566Z,1.25
2019-03-04T17:40:50.072Z,1.32
2019-03-04T17:43:16.447Z,1.30
2019-03-04T17:45:42.986Z,1.35
2019-03-04T17:48:09.279Z,1.42
2019-03-04T17:50:41.460Z,1.27
2019-03-04T17:53:09.944Z,1.80
2019-03-04T17:55:36.318Z,1.40
2019-03-04T17:58:02.981Z,1.20
2019-03-04T18:00:29.796Z,1.50
2019-03-04T18:02:56.094Z,1.72
2019-03-04T18:05:22.452Z,1.70
2019-03-04T18:07:48.709Z,1.85
2019-03-04T18:10:17.868Z,3.08
2019-03-04T18:12:45.852Z,2.40
2019-03-04T18:15:25.246Z,2.67
2019-03-04T18:17:51.609Z,4.35
2019-03-04T18:20:18.071Z,4.58
2019-03-04T18:22:44.664Z,6.40
2019-03-04T18:25:32.638Z,3.35
2019-03-04T18:28:02.751Z,3.95
2019-03-04T18:30:44.713Z,3.20
2019-03-04T18:33:20.865Z,3.70
2019-03-04T18:36:00.203Z,4.10
2019-03-04T18:38:46.921Z,3.08
2019-03-04T18:41:31.587Z,2.00
2019-03-04T18:44:18.557Z,1.77
2019-03-04T18:46:54.560Z,1.32
2019-03-04T18:49:21.002Z,1.10
2019-03-04T18:51:47.472Z,1.57
2019-03-04T18:54:13.715Z,2.00
2019-03-04T18:56:41.141Z,1.30
2019-03-04T18:59:07.624Z,1.10
2019-03-04T19:01:34.073Z,1.30
2019-03-04T19:04:00.397Z,2.65
2019-03-04T19:06:26.740Z,1.50
2019-03-04T19:08:53.200Z,1.20
2019-03-04T19:11:19.688Z,1.05
2019-03-04T19:13:46.098Z,1.50
2019-03-04T19:16:12.602Z,1.25
2019-03-04T19:18:39.460Z,1.45
2019-03-04T19:21:05.998Z,1.20
2019-03-04T19:23:32.265Z,1.20
2019-03-04T19:25:58.570Z,0.90
2019-03-04T19:28:24.933Z,0.78
2019-03-04T19:30:51.397Z,0.70
2019-03-04T19:33:17.780Z,0.55
2019-03-04T19:35:44.152Z,0.80
2019-03-04T19:38:10.559Z,0.62
2019-03-04T19:40:37.303Z,1.00
2019-03-04T19:43:03.693Z,0.70
2019-03-04T19:45:30.328Z,0.82
2019-03-04T19:47:56.711Z,0.70
2019-03-04T19:50:23.019Z,0.60
2019-03-04T19:52:49.406Z,0.70
2019-03-04T19:55:16.933Z,0.70
2019-03-04T19:57:43.603Z,0.70
2019-03-04T20:00:26.354Z,0.70
2019-03-04T20:02:54.022Z,0.62
2019-03-04T20:05:22.083Z,0.70
2019-03-04T20:07:48.359Z,0.60
2019-03-04T20:10:15.742Z,0.80
2019-03-04T20:12:42.114Z,0.60
2019-03-04T20:15:20.989Z,0.70
2019-03-04T20:17:47.464Z,0.70
2019-03-04T20:20:13.820Z,0.70
2019-03-04T20:22:40.085Z,0.75
2019-03-04T20:25:09.268Z,0.70
2019-03-04T20:27:35.523Z,0.65
2019-03-04T20:30:03.116Z,0.80
2019-03-04T20:32:29.471Z,0.80
2019-03-04T20:34:55.767Z,0.90
2019-03-04T20:37:24.130Z,0.98
2019-03-04T20:39:50.411Z,0.90
2019-03-04T20:42:17.737Z,0.93
2019-03-04T20:44:43.967Z,0.98
2019-03-04T20:47:10.389Z,1.15
2019-03-04T20:49:36.719Z,1.22
2019-03-04T20:52:03.173Z,1.20
2019-03-04T20:54:29.458Z,0.98
2019-03-04T20:56:55.938Z,1.20
2019-03-04T20:59:22.317Z,1.12
2019-03-04T21:01:48.673Z,1.22
2019-03-04T21:04:15.150Z,1.07
2019-03-04T21:06:41.699Z,0.93
2019-03-04T21:09:08.985Z,0.98
2019-03-04T21:11:35.503Z,0.70
2019-03-04T21:14:01.793Z,1.00
2019-03-04T21:16:28.021Z,1.22
2019-03-04T21:18:54.399Z,1.12
2019-03-04T21:21:20.759Z,1.30
2019-03-04T21:23:48.617Z,1.47
2019-03-04T21:26:18.180Z,1.12
2019-03-04T21:29:00.555Z,1.40
2019-03-04T21:31:42.562Z,1.10
2019-03-04T21:34:15.655Z,1.20
2019-03-04T21:37:05.451Z,1.20
2019-03-04T21:39:38.369Z,1.17
2019-03-04T21:42:27.789Z,1.12
2019-03-04T21:45:14.316Z,0.85
2019-03-04T21:48:02.479Z,1.00
2019-03-04T21:50:44.436Z,1.12
2019-03-04T21:53:23.051Z,1.00
2019-03-04T21:55:56.153Z,1.10
2019-03-04T21:58:22.421Z,0.88
2019-03-04T22:00:52.475Z,0.90
2019-03-04T22:03:19.765Z,1.00
2019-03-04T22:05:50.239Z,0.80
2019-03-04T22:08:14.700Z,1.10
2019-03-04T22:10:41.202Z,1.17
2019-03-04T22:13:07.667Z,0.85
2019-03-04T22:15:33.949Z,0.80
2019-03-04T22:18:00.408Z,1.00
2019-03-04T22:20:26.652Z,0.90
2019-03-04T22:22:53.111Z,1.00
2019-03-04T22:25:20.286Z,0.85
2019-03-04T22:27:47.065Z,1.00
2019-03-04T22:30:16.640Z,0.98
2019-03-04T22:32:43.228Z,1.07
2019-03-04T22:35:11.878Z,0.80
2019-03-04T22:37:38.345Z,0.93
2019-03-04T22:40:10.870Z,0.88
2019-03-04T22:42:37.258Z,0.80
2019-03-04T22:45:07.333Z,0.80
2019-03-04T22:47:33.738Z,0.85
2019-03-04T22:50:00.023Z,1.07
2019-03-04T22:52:26.288Z,0.95
2019-03-04T22:54:52.644Z,0.90
2019-03-04T22:57:18.923Z,1.00
2019-03-04T22:59:45.189Z,0.95
2019-03-04T23:02:12.222Z,1.10
2019-03-04T23:04:38.636Z,1.10
2019-03-04T23:07:06.687Z,0.95
2019-03-04T23:09:36.761Z,1.00
2019-03-04T23:12:18.907Z,0.90
2019-03-04T23:14:46.569Z,1.10
2019-03-04T23:17:12.858Z,1.02
2019-03-04T23:19:39.108Z,0.75
2019-03-04T23:22:05.565Z,0.70
2019-03-04T23:24:31.860Z,1.00
2019-03-04T23:26:58.115Z,0.95
2019-03-04T23:29:24.376Z,0.95
2019-03-04T23:31:50.655Z,0.90
2019-03-04T23:34:17.020Z,0.98
2019-03-04T23:36:43.375Z,1.10
2019-03-04T23:39:09.846Z,0.80
2019-03-04T23:41:36.101Z,1.00
2019-03-04T23:44:02.784Z,1.05
2019-03-04T23:46:29.139Z,0.98
2019-03-04T23:48:55.555Z,1.00
2019-03-04T23:51:21.807Z,0.82
2019-03-04T23:53:48.082Z,1.05
2019-03-04T23:56:14.376Z,1.05
2019-03-04T23:58:40.668Z,0.80
